sensor_id;sensor_type;location;lat;lon;timestamp;pressure;altitude;pressure_sealevel;temperature;humidity
20612;BME280;10465;42.686;23.364;2022-09-20T00:01:08;95071.88;;;14.36;56.88
20612;BME280;10465;42.686;23.364;2022-09-20T00:03:41;95072.03;;;14.40;56.83
20612;BME280;10465;42.686;23.364;2022-09-20T00:06:09;95069.09;;;14.32;56.52
20612;BME280;10465;42.686;23.364;2022-09-20T00:08:35;95033.81;;;14.15;56.39
20612;BME280;10465;42.686;23.364;2022-09-20T00:11:02;95040.38;;;14.17;56.34
20612;BME280;10465;42.686;23.364;2022-09-20T00:13:28;95069.09;;;14.32;56.47
20612;BME280;10465;42.686;23.364;2022-09-20T00:15:54;95075.84;;;14.30;56.46
20612;BME280;10465;42.686;23.364;2022-09-20T00:18:20;95070.66;;;14.33;56.27
20612;BME280;10465;42.686;23.364;2022-09-20T00:20:48;95027.66;;;13.93;56.39
20612;BME280;10465;42.686;23.364;2022-09-20T00:23:14;95071.34;;;14.22;56.83
20612;BME280;10465;42.686;23.364;2022-09-20T00:25:41;95068.81;;;13.96;56.87
20612;BME280;10465;42.686;23.364;2022-09-20T00:28:07;95070.28;;;13.84;57.79
20612;BME280;10465;42.686;23.364;2022-09-20T00:30:33;95069.59;;;13.67;58.40
20612;BME280;10465;42.686;23.364;2022-09-20T00:32:59;95043.78;;;13.58;58.01
20612;BME280;10465;42.686;23.364;2022-09-20T00:35:26;95057.22;;;13.71;58.11
20612;BME280;10465;42.686;23.364;2022-09-20T00:37:51;95062.78;;;13.87;57.83
20612;BME280;10465;42.686;23.364;2022-09-20T00:40:19;95064.00;;;13.89;57.90
20612;BME280;10465;42.686;23.364;2022-09-20T00:42:46;95065.63;;;13.81;58.02
20612;BME280;10465;42.686;23.364;2022-09-20T00:45:22;95058.91;;;13.75;58.09
20612;BME280;10465;42.686;23.364;2022-09-20T00:50:25;95016.50;;;13.32;58.33
20612;BME280;10465;42.686;23.364;2022-09-20T00:52:59;95055.88;;;13.47;58.74
20612;BME280;10465;42.686;23.364;2022-09-20T00:55:26;95044.16;;;13.40;58.93
20612;BME280;10465;42.686;23.364;2022-09-20T00:57:53;95076.38;;;13.47;58.78
20612;BME280;10465;42.686;23.364;2022-09-20T01:00:18;95053.69;;;13.41;58.56
20612;BME280;10465;42.686;23.364;2022-09-20T01:02:48;95074.47;;;13.56;58.34
20612;BME280;10465;42.686;23.364;2022-09-20T01:05:16;95063.38;;;13.54;58.34
20612;BME280;10465;42.686;23.364;2022-09-20T01:07:44;95063.34;;;13.63;57.99
20612;BME280;10465;42.686;23.364;2022-09-20T01:10:10;95055.50;;;13.66;57.88
20612;BME280;10465;42.686;23.364;2022-09-20T01:12:37;95049.31;;;13.53;57.39
20612;BME280;10465;42.686;23.364;2022-09-20T01:15:06;95072.22;;;13.75;56.68
20612;BME280;10465;42.686;23.364;2022-09-20T01:17:35;95073.19;;;13.62;57.08
20612;BME280;10465;42.686;23.364;2022-09-20T01:25:59;95072.25;;;13.67;56.71
20612;BME280;10465;42.686;23.364;2022-09-20T01:28:29;95056.91;;;13.64;56.69
20612;BME280;10465;42.686;23.364;2022-09-20T01:34:20;95070.06;;;13.60;56.64
20612;BME280;10465;42.686;23.364;2022-09-20T01:39:40;95048.75;;;13.30;56.83
20612;BME280;10465;42.686;23.364;2022-09-20T01:42:12;95056.56;;;13.27;57.53
20612;BME280;10465;42.686;23.364;2022-09-20T02:09:52;95048.91;;;13.17;59.39
20612;BME280;10465;42.686;23.364;2022-09-20T02:12:31;95015.78;;;12.88;59.85
20612;BME280;10465;42.686;23.364;2022-09-20T02:20:31;95033.59;;;12.96;60.90
20612;BME280;10465;42.686;23.364;2022-09-20T02:26:48;95045.00;;;12.88;61.06
20612;BME280;10465;42.686;23.364;2022-09-20T02:31:59;95052.38;;;12.74;61.50
20612;BME280;10465;42.686;23.364;2022-09-20T02:42:45;95052.69;;;12.81;60.46
20612;BME280;10465;42.686;23.364;2022-09-20T02:48:03;95060.81;;;12.76;60.10
20612;BME280;10465;42.686;23.364;2022-09-20T02:53:15;95064.09;;;12.55;61.28
20612;BME280;10465;42.686;23.364;2022-09-20T02:55:59;95075.53;;;12.65;61.12
20612;BME280;10465;42.686;23.364;2022-09-20T03:04:12;95072.38;;;12.54;62.45
20612;BME280;10465;42.686;23.364;2022-09-20T03:09:22;95072.22;;;12.59;62.59
20612;BME280;10465;42.686;23.364;2022-09-20T03:14:30;95075.34;;;12.52;63.28
20612;BME280;10465;42.686;23.364;2022-09-20T03:17:04;95077.84;;;12.57;63.04
20612;BME280;10465;42.686;23.364;2022-09-20T03:22:30;95073.16;;;12.54;63.00
20612;BME280;10465;42.686;23.364;2022-09-20T03:39:17;95092.50;;;12.29;63.71
20612;BME280;10465;42.686;23.364;2022-09-20T03:41:40;95095.63;;;12.40;63.08
20612;BME280;10465;42.686;23.364;2022-09-20T03:47:02;95091.56;;;12.42;62.67
20612;BME280;10465;42.686;23.364;2022-09-20T03:55:41;95096.28;;;12.45;62.50
20612;BME280;10465;42.686;23.364;2022-09-20T04:04:00;95097.22;;;12.41;62.14
20612;BME280;10465;42.686;23.364;2022-09-20T04:12:01;95106.72;;;12.50;61.29
20612;BME280;10465;42.686;23.364;2022-09-20T04:14:41;95108.13;;;12.39;61.40
20612;BME280;10465;42.686;23.364;2022-09-20T04:17:19;95112.81;;;12.42;61.44
20612;BME280;10465;42.686;23.364;2022-09-20T04:19:57;95087.38;;;11.84;62.37
20612;BME280;10465;42.686;23.364;2022-09-20T04:22:28;95118.38;;;12.23;62.18
20612;BME280;10465;42.686;23.364;2022-09-20T04:25:02;95115.78;;;12.41;61.78
20612;BME280;10465;42.686;23.364;2022-09-20T04:27:56;95128.59;;;12.47;61.25
20612;BME280;10465;42.686;23.364;2022-09-20T04:30:28;95106.88;;;12.28;61.55
20612;BME280;10465;42.686;23.364;2022-09-20T04:33:17;95124.22;;;12.51;60.98
20612;BME280;10465;42.686;23.364;2022-09-20T04:45:30;95109.69;;;12.40;61.13
20612;BME280;10465;42.686;23.364;2022-09-20T04:50:55;95142.22;;;12.63;61.57
20612;BME280;10465;42.686;23.364;2022-09-20T04:53:56;95146.91;;;12.57;61.30
20612;BME280;10465;42.686;23.364;2022-09-20T04:56:47;95153.16;;;12.61;61.84
20612;BME280;10465;42.686;23.364;2022-09-20T05:11:11;95135.31;;;12.45;61.86
20612;BME280;10465;42.686;23.364;2022-09-20T05:22:06;95152.66;;;12.59;62.02
20612;BME280;10465;42.686;23.364;2022-09-20T05:27:54;95152.81;;;12.46;62.94
20612;BME280;10465;42.686;23.364;2022-09-20T05:33:36;95155.47;;;12.63;62.95
20612;BME280;10465;42.686;23.364;2022-09-20T05:36:16;95160.94;;;12.58;62.90
20612;BME280;10465;42.686;23.364;2022-09-20T05:38:55;95135.78;;;12.47;63.24
20612;BME280;10465;42.686;23.364;2022-09-20T05:41:46;95160.97;;;12.67;62.87
20612;BME280;10465;42.686;23.364;2022-09-20T05:44:22;95148.63;;;12.71;62.76
20612;BME280;10465;42.686;23.364;2022-09-20T05:52:52;95120.78;;;12.51;62.91
20612;BME280;10465;42.686;23.364;2022-09-20T05:58:55;95158.31;;;12.84;61.96
20612;BME280;10465;42.686;23.364;2022-09-20T06:01:39;95159.41;;;12.83;62.36
20612;BME280;10465;42.686;23.364;2022-09-20T06:04:21;95097.50;;;12.39;62.44
20612;BME280;10465;42.686;23.364;2022-09-20T06:17:56;95163.03;;;12.96;62.03
20612;BME280;10465;42.686;23.364;2022-09-20T06:20:37;95163.97;;;13.00;61.73
20612;BME280;10465;42.686;23.364;2022-09-20T06:23:04;95133.78;;;12.87;62.17
20612;BME280;10465;42.686;23.364;2022-09-20T06:30:43;95128.34;;;13.09;60.85
20612;BME280;10465;42.686;23.364;2022-09-20T06:35:41;95101.91;;;13.13;60.17
20612;BME280;10465;42.686;23.364;2022-09-20T06:38:32;95153.31;;;13.52;59.91
20612;BME280;10465;42.686;23.364;2022-09-20T06:41:20;95157.81;;;13.69;59.51
20612;BME280;10465;42.686;23.364;2022-09-20T06:43:52;95130.75;;;13.75;58.69
20612;BME280;10465;42.686;23.364;2022-09-20T06:46:19;95158.34;;;14.00;58.12
20612;BME280;10465;42.686;23.364;2022-09-20T06:48:46;95157.31;;;13.84;58.22
20612;BME280;10465;42.686;23.364;2022-09-20T06:51:14;95145.44;;;13.81;58.45
20612;BME280;10465;42.686;23.364;2022-09-20T06:53:40;95159.16;;;13.92;57.65
20612;BME280;10465;42.686;23.364;2022-09-20T06:56:14;95138.88;;;13.79;57.86
20612;BME280;10465;42.686;23.364;2022-09-20T06:58:40;95160.38;;;14.03;57.74
20612;BME280;10465;42.686;23.364;2022-09-20T07:01:06;95156.25;;;14.23;56.89
20612;BME280;10465;42.686;23.364;2022-09-20T07:03:31;95128.75;;;14.10;56.17
20612;BME280;10465;42.686;23.364;2022-09-20T07:05:57;95147.28;;;14.28;55.83
20612;BME280;10465;42.686;23.364;2022-09-20T07:08:25;95174.47;;;14.42;55.57
20612;BME280;10465;42.686;23.364;2022-09-20T07:10:51;95174.97;;;14.35;55.62
20612;BME280;10465;42.686;23.364;2022-09-20T07:13:16;95179.16;;;14.45;55.62
20612;BME280;10465;42.686;23.364;2022-09-20T07:15:43;95176.66;;;14.40;55.71
20612;BME280;10465;42.686;23.364;2022-09-20T07:18:08;95138.72;;;14.22;55.83
20612;BME280;10465;42.686;23.364;2022-09-20T07:20:34;95168.63;;;14.57;55.25
20612;BME280;10465;42.686;23.364;2022-09-20T07:22:59;95138.25;;;14.50;55.15
20612;BME280;10465;42.686;23.364;2022-09-20T07:25:25;95170.16;;;14.88;54.44
20612;BME280;10465;42.686;23.364;2022-09-20T07:27:50;95169.31;;;14.96;53.88
20612;BME280;10465;42.686;23.364;2022-09-20T07:30:17;95173.47;;;15.27;52.51
20612;BME280;10465;42.686;23.364;2022-09-20T07:32:43;95172.28;;;15.37;53.01
20612;BME280;10465;42.686;23.364;2022-09-20T07:35:09;95171.66;;;15.40;52.90
20612;BME280;10465;42.686;23.364;2022-09-20T07:37:35;95171.38;;;15.32;52.91
20612;BME280;10465;42.686;23.364;2022-09-20T07:40:02;95168.91;;;15.06;53.21
20612;BME280;10465;42.686;23.364;2022-09-20T07:42:29;95146.75;;;14.94;53.56
20612;BME280;10465;42.686;23.364;2022-09-20T07:44:55;95174.13;;;15.03;53.89
20612;BME280;10465;42.686;23.364;2022-09-20T07:47:20;95149.88;;;14.75;52.93
20612;BME280;10465;42.686;23.364;2022-09-20T07:49:50;95163.78;;;15.01;52.81
20612;BME280;10465;42.686;23.364;2022-09-20T07:52:16;95146.88;;;15.18;51.60
20612;BME280;10465;42.686;23.364;2022-09-20T07:54:41;95158.97;;;15.37;51.13
20612;BME280;10465;42.686;23.364;2022-09-20T07:57:08;95145.91;;;15.56;50.19
20612;BME280;10465;42.686;23.364;2022-09-20T07:59:33;95155.16;;;16.04;49.00
20612;BME280;10465;42.686;23.364;2022-09-20T08:01:59;95156.84;;;16.21;48.32
20612;BME280;10465;42.686;23.364;2022-09-20T08:04:25;95158.84;;;16.24;47.74
20612;BME280;10465;42.686;23.364;2022-09-20T08:06:51;95160.63;;;16.56;47.55
20612;BME280;10465;42.686;23.364;2022-09-20T08:09:16;95157.16;;;16.80;47.42
20612;BME280;10465;42.686;23.364;2022-09-20T08:11:42;95127.75;;;16.80;45.02
20612;BME280;10465;42.686;23.364;2022-09-20T08:14:11;95120.97;;;16.83;44.94
20612;BME280;10465;42.686;23.364;2022-09-20T08:16:39;95135.59;;;17.14;44.40
20612;BME280;10465;42.686;23.364;2022-09-20T08:19:05;95151.38;;;17.31;43.49
20612;BME280;10465;42.686;23.364;2022-09-20T08:21:33;95149.25;;;17.52;42.65
20612;BME280;10465;42.686;23.364;2022-09-20T08:23:59;95161.00;;;17.76;41.98
20612;BME280;10465;42.686;23.364;2022-09-20T08:26:28;95168.50;;;17.70;41.54
20612;BME280;10465;42.686;23.364;2022-09-20T08:28:56;95172.13;;;17.22;41.85
20612;BME280;10465;42.686;23.364;2022-09-20T08:31:25;95160.72;;;16.85;42.17
20612;BME280;10465;42.686;23.364;2022-09-20T08:33:52;95151.78;;;16.93;41.41
20612;BME280;10465;42.686;23.364;2022-09-20T08:36:20;95154.72;;;17.28;40.80
20612;BME280;10465;42.686;23.364;2022-09-20T08:38:47;95150.84;;;17.69;40.63
20612;BME280;10465;42.686;23.364;2022-09-20T08:41:20;95144.44;;;18.02;39.75
20612;BME280;10465;42.686;23.364;2022-09-20T08:43:59;95136.94;;;18.39;39.02
20612;BME280;10465;42.686;23.364;2022-09-20T08:46:28;95134.28;;;18.59;38.59
20612;BME280;10465;42.686;23.364;2022-09-20T08:48:56;95137.41;;;18.61;38.08
20612;BME280;10465;42.686;23.364;2022-09-20T08:51:22;95082.38;;;17.68;38.61
20612;BME280;10465;42.686;23.364;2022-09-20T08:53:52;95096.97;;;17.55;39.45
20612;BME280;10465;42.686;23.364;2022-09-20T08:56:19;95107.13;;;17.49;39.60
20612;BME280;10465;42.686;23.364;2022-09-20T08:58:45;95102.59;;;17.22;39.74
20612;BME280;10465;42.686;23.364;2022-09-20T09:01:19;95128.31;;;17.26;40.43
20612;BME280;10465;42.686;23.364;2022-09-20T09:03:45;95132.13;;;17.41;40.58
20612;BME280;10465;42.686;23.364;2022-09-20T09:06:13;95131.84;;;17.59;40.44
20612;BME280;10465;42.686;23.364;2022-09-20T09:08:42;95095.34;;;17.98;40.01
20612;BME280;10465;42.686;23.364;2022-09-20T09:11:13;95086.69;;;18.36;37.48
20612;BME280;10465;42.686;23.364;2022-09-20T09:14:04;95113.78;;;18.66;37.20
20612;BME280;10465;42.686;23.364;2022-09-20T09:16:54;95086.53;;;18.29;36.95
20612;BME280;10465;42.686;23.364;2022-09-20T09:19:31;95082.50;;;17.88;37.87
20612;BME280;10465;42.686;23.364;2022-09-20T09:22:00;95105.19;;;17.78;39.25
20612;BME280;10465;42.686;23.364;2022-09-20T09:24:27;95104.13;;;17.51;39.26
20612;BME280;10465;42.686;23.364;2022-09-20T09:27:12;95098.53;;;17.28;39.47
20612;BME280;10465;42.686;23.364;2022-09-20T09:29:51;95053.81;;;17.28;39.65
20612;BME280;10465;42.686;23.364;2022-09-20T09:32:28;95053.47;;;17.90;38.69
20612;BME280;10465;42.686;23.364;2022-09-20T09:34:56;95085.59;;;18.72;36.45
20612;BME280;10465;42.686;23.364;2022-09-20T09:37:55;95092.72;;;19.03;35.06
20612;BME280;10465;42.686;23.364;2022-09-20T09:40:22;95081.00;;;19.12;34.50
20612;BME280;10465;42.686;23.364;2022-09-20T09:42:53;95072.28;;;18.60;35.07
20612;BME280;10465;42.686;23.364;2022-09-20T09:45:36;95060.16;;;18.31;35.00
20612;BME280;10465;42.686;23.364;2022-09-20T09:50:45;95085.75;;;18.28;36.74
20612;BME280;10465;42.686;23.364;2022-09-20T09:53:15;95080.50;;;18.16;37.08
20612;BME280;10465;42.686;23.364;2022-09-20T09:58:47;95097.88;;;17.75;38.55
20612;BME280;10465;42.686;23.364;2022-09-20T10:01:33;95085.28;;;17.47;39.00
20612;BME280;10465;42.686;23.364;2022-09-20T10:06:57;95083.47;;;17.51;38.71
20612;BME280;10465;42.686;23.364;2022-09-20T10:12:10;95081.66;;;17.55;38.96
20612;BME280;10465;42.686;23.364;2022-09-20T10:17:45;95081.09;;;17.78;38.70
20612;BME280;10465;42.686;23.364;2022-09-20T10:31:37;95080.13;;;18.18;38.02
20612;BME280;10465;42.686;23.364;2022-09-20T10:37:00;95039.56;;;18.70;35.74
20612;BME280;10465;42.686;23.364;2022-09-20T10:39:34;95070.22;;;18.89;35.68
20612;BME280;10465;42.686;23.364;2022-09-20T10:47:52;94997.84;;;18.18;37.18
20612;BME280;10465;42.686;23.364;2022-09-20T10:51:01;95061.34;;;18.69;37.59
20612;BME280;10465;42.686;23.364;2022-09-20T10:56:42;95051.81;;;18.17;37.38
20612;BME280;10465;42.686;23.364;2022-09-20T11:01:47;95050.94;;;18.13;37.27
20612;BME280;10465;42.686;23.364;2022-09-20T11:07:14;95054.53;;;19.30;34.77
20612;BME280;10465;42.686;23.364;2022-09-20T11:09:56;95047.75;;;19.59;32.81
20612;BME280;10465;42.686;23.364;2022-09-20T11:15:01;95026.44;;;19.66;32.38
20612;BME280;10465;42.686;23.364;2022-09-20T11:17:38;95020.22;;;19.62;32.47
20612;BME280;10465;42.686;23.364;2022-09-20T11:20:21;95046.06;;;20.19;32.23
20612;BME280;10465;42.686;23.364;2022-09-20T11:23:18;94987.09;;;20.04;32.36
20612;BME280;10465;42.686;23.364;2022-09-20T11:25:55;94983.88;;;20.21;31.64
20612;BME280;10465;42.686;23.364;2022-09-20T11:28:35;95020.03;;;20.50;31.14
20612;BME280;10465;42.686;23.364;2022-09-20T11:31:07;95027.91;;;20.66;30.99
20612;BME280;10465;42.686;23.364;2022-09-20T11:33:48;95026.84;;;20.74;30.50
20612;BME280;10465;42.686;23.364;2022-09-20T11:37:09;95006.44;;;20.69;30.96
20612;BME280;10465;42.686;23.364;2022-09-20T11:39:54;95018.25;;;20.91;30.79
20612;BME280;10465;42.686;23.364;2022-09-20T11:42:39;95031.56;;;20.51;31.47
20612;BME280;10465;42.686;23.364;2022-09-20T11:45:09;95031.59;;;20.84;30.92
20612;BME280;10465;42.686;23.364;2022-09-20T11:47:50;95036.44;;;21.05;31.10
20612;BME280;10465;42.686;23.364;2022-09-20T11:56:24;95000.00;;;20.47;31.00
20612;BME280;10465;42.686;23.364;2022-09-20T11:58:55;94996.09;;;20.71;30.20
20612;BME280;10465;42.686;23.364;2022-09-20T12:01:39;95006.63;;;21.21;30.19
20612;BME280;10465;42.686;23.364;2022-09-20T12:04:21;95015.28;;;21.04;30.39
20612;BME280;10465;42.686;23.364;2022-09-20T12:07:02;94979.91;;;20.68;30.32
20612;BME280;10465;42.686;23.364;2022-09-20T12:09:40;95014.19;;;20.74;30.90
20612;BME280;10465;42.686;23.364;2022-09-20T12:15:03;95016.34;;;20.95;30.80
20612;BME280;10465;42.686;23.364;2022-09-20T12:28:35;95009.91;;;21.04;30.44
20612;BME280;10465;42.686;23.364;2022-09-20T12:39:21;94999.84;;;21.34;30.18
20612;BME280;10465;42.686;23.364;2022-09-20T12:44:35;95002.41;;;21.61;29.52
20612;BME280;10465;42.686;23.364;2022-09-20T12:49:36;95005.03;;;21.54;29.34
20612;BME280;10465;42.686;23.364;2022-09-20T12:55:11;94990.56;;;22.20;29.37
20612;BME280;10465;42.686;23.364;2022-09-20T12:57:37;94980.44;;;22.07;29.04
20612;BME280;10465;42.686;23.364;2022-09-20T13:00:06;94982.50;;;22.20;28.59
20612;BME280;10465;42.686;23.364;2022-09-20T13:05:36;94990.47;;;22.10;28.70
20612;BME280;10465;42.686;23.364;2022-09-20T13:08:15;94981.78;;;21.79;28.78
20612;BME280;10465;42.686;23.364;2022-09-20T13:11:09;94940.31;;;21.43;28.99
20612;BME280;10465;42.686;23.364;2022-09-20T13:21:26;94989.66;;;21.17;28.85
20612;BME280;10465;42.686;23.364;2022-09-20T13:23:52;94999.78;;;21.31;28.47
20612;BME280;10465;42.686;23.364;2022-09-20T13:26:27;94991.25;;;21.21;28.71
20612;BME280;10465;42.686;23.364;2022-09-20T13:28:55;94982.63;;;21.42;28.75
20612;BME280;10465;42.686;23.364;2022-09-20T13:31:26;94985.28;;;21.35;28.46
20612;BME280;10465;42.686;23.364;2022-09-20T13:33:52;94976.25;;;21.20;28.42
20612;BME280;10465;42.686;23.364;2022-09-20T13:36:25;94990.94;;;21.30;28.19
20612;BME280;10465;42.686;23.364;2022-09-20T13:38:52;94986.09;;;21.43;28.28
20612;BME280;10465;42.686;23.364;2022-09-20T13:41:19;94975.31;;;21.39;28.13
20612;BME280;10465;42.686;23.364;2022-09-20T13:43:46;94989.75;;;21.65;27.95
20612;BME280;10465;42.686;23.364;2022-09-20T13:46:24;94976.69;;;21.67;27.77
20612;BME280;10465;42.686;23.364;2022-09-20T13:49:16;94988.50;;;21.55;27.40
20612;BME280;10465;42.686;23.364;2022-09-20T13:51:45;94967.06;;;21.66;27.22
20612;BME280;10465;42.686;23.364;2022-09-20T13:54:26;94968.66;;;21.74;27.56
20612;BME280;10465;42.686;23.364;2022-09-20T13:56:58;94983.88;;;21.52;27.98
20612;BME280;10465;42.686;23.364;2022-09-20T13:59:40;94984.66;;;21.15;28.44
20612;BME280;10465;42.686;23.364;2022-09-20T14:02:20;94958.69;;;20.59;28.83
20612;BME280;10465;42.686;23.364;2022-09-20T14:04:46;94978.28;;;20.60;29.43
20612;BME280;10465;42.686;23.364;2022-09-20T14:07:15;94972.94;;;20.63;29.61
20612;BME280;10465;42.686;23.364;2022-09-20T14:09:43;94973.13;;;20.81;29.69
20612;BME280;10465;42.686;23.364;2022-09-20T14:12:10;94949.34;;;20.83;29.68
20612;BME280;10465;42.686;23.364;2022-09-20T14:14:38;94970.78;;;21.13;29.61
20612;BME280;10465;42.686;23.364;2022-09-20T14:17:05;94976.13;;;21.43;29.57
20612;BME280;10465;42.686;23.364;2022-09-20T14:19:37;94974.38;;;21.24;30.22
20612;BME280;10465;42.686;23.364;2022-09-20T14:22:05;94975.06;;;21.18;30.51
20612;BME280;10465;42.686;23.364;2022-09-20T14:24:35;94975.22;;;20.95;31.47
20612;BME280;10465;42.686;23.364;2022-09-20T14:27:18;94969.19;;;20.71;31.77
20612;BME280;10465;42.686;23.364;2022-09-20T14:29:46;94976.94;;;20.77;32.01
20612;BME280;10465;42.686;23.364;2022-09-20T14:35:04;94972.38;;;19.94;32.59
20612;BME280;10465;42.686;23.364;2022-09-20T14:40:17;94976.13;;;20.42;32.10
20612;BME280;10465;42.686;23.364;2022-09-20T14:43:04;94982.41;;;20.54;31.21
20612;BME280;10465;42.686;23.364;2022-09-20T14:45:32;94989.94;;;20.71;30.08
20612;BME280;10465;42.686;23.364;2022-09-20T14:50:38;94995.50;;;20.55;31.00
20612;BME280;10465;42.686;23.364;2022-09-20T14:55:37;94997.69;;;20.46;31.53
20612;BME280;10465;42.686;23.364;2022-09-20T14:58:13;94990.53;;;20.57;32.05
20612;BME280;10465;42.686;23.364;2022-09-20T15:00:54;94974.38;;;20.57;32.09
20612;BME280;10465;42.686;23.364;2022-09-20T15:03:29;94991.19;;;20.81;31.79
20612;BME280;10465;42.686;23.364;2022-09-20T15:05:56;94985.69;;;20.70;32.09
20612;BME280;10465;42.686;23.364;2022-09-20T15:08:22;94982.06;;;20.29;32.68
20612;BME280;10465;42.686;23.364;2022-09-20T15:10:48;94969.22;;;20.15;33.16
20612;BME280;10465;42.686;23.364;2022-09-20T15:13:14;94987.75;;;20.23;33.53
20612;BME280;10465;42.686;23.364;2022-09-20T15:15:41;94989.91;;;20.41;33.41
20612;BME280;10465;42.686;23.364;2022-09-20T15:18:22;94982.34;;;20.20;33.95
20612;BME280;10465;42.686;23.364;2022-09-20T15:20:49;94991.75;;;20.07;33.90
20612;BME280;10465;42.686;23.364;2022-09-20T15:23:15;94978.00;;;20.12;37.79
20612;BME280;10465;42.686;23.364;2022-09-20T15:25:44;94979.97;;;20.15;34.37
20612;BME280;10465;42.686;23.364;2022-09-20T15:28:14;94984.69;;;20.25;34.65
20612;BME280;10465;42.686;23.364;2022-09-20T15:30:45;94982.38;;;20.23;34.52
20612;BME280;10465;42.686;23.364;2022-09-20T15:33:11;94977.59;;;20.10;34.57
20612;BME280;10465;42.686;23.364;2022-09-20T15:35:38;94966.47;;;20.11;35.15
20612;BME280;10465;42.686;23.364;2022-09-20T15:38:04;94991.94;;;20.21;35.44
20612;BME280;10465;42.686;23.364;2022-09-20T15:40:33;94992.00;;;20.24;35.43
20612;BME280;10465;42.686;23.364;2022-09-20T15:42:59;94992.59;;;20.11;35.15
20612;BME280;10465;42.686;23.364;2022-09-20T15:45:25;94994.97;;;19.89;35.34
20612;BME280;10465;42.686;23.364;2022-09-20T15:47:52;94996.22;;;19.72;35.22
20612;BME280;10465;42.686;23.364;2022-09-20T15:50:20;94998.13;;;19.72;34.96
20612;BME280;10465;42.686;23.364;2022-09-20T15:52:47;94982.63;;;19.62;35.34
20612;BME280;10465;42.686;23.364;2022-09-20T15:55:13;94990.72;;;19.42;35.87
20612;BME280;10465;42.686;23.364;2022-09-20T15:57:38;95000.06;;;19.29;36.34
20612;BME280;10465;42.686;23.364;2022-09-20T16:00:05;95002.19;;;19.20;36.43
20612;BME280;10465;42.686;23.364;2022-09-20T16:02:32;94995.59;;;18.94;36.97
20612;BME280;10465;42.686;23.364;2022-09-20T16:04:57;95008.88;;;18.68;37.62
20612;BME280;10465;42.686;23.364;2022-09-20T16:07:24;95004.34;;;18.52;37.92
20612;BME280;10465;42.686;23.364;2022-09-20T16:09:55;94956.47;;;18.16;38.39
20612;BME280;10465;42.686;23.364;2022-09-20T16:12:22;94997.66;;;18.27;38.72
20612;BME280;10465;42.686;23.364;2022-09-20T16:14:50;95008.47;;;18.31;38.94
20612;BME280;10465;42.686;23.364;2022-09-20T16:17:16;95013.59;;;18.20;39.25
20612;BME280;10465;42.686;23.364;2022-09-20T16:19:43;94986.88;;;17.88;39.60
20612;BME280;10465;42.686;23.364;2022-09-20T16:22:12;95006.66;;;17.99;39.91
20612;BME280;10465;42.686;23.364;2022-09-20T16:24:38;95015.09;;;17.86;40.13
20612;BME280;10465;42.686;23.364;2022-09-20T16:27:06;94990.78;;;17.75;40.40
20612;BME280;10465;42.686;23.364;2022-09-20T16:29:32;95020.81;;;17.84;40.38
20612;BME280;10465;42.686;23.364;2022-09-20T16:31:59;95015.28;;;17.77;40.47
20612;BME280;10465;42.686;23.364;2022-09-20T16:34:34;94994.72;;;17.65;40.32
20612;BME280;10465;42.686;23.364;2022-09-20T16:37:05;95017.19;;;17.76;40.58
20612;BME280;10465;42.686;23.364;2022-09-20T16:39:32;95023.97;;;17.74;40.62
20612;BME280;10465;42.686;23.364;2022-09-20T16:41:59;95012.50;;;17.58;40.75
20612;BME280;10465;42.686;23.364;2022-09-20T16:44:32;95006.53;;;17.48;41.07
20612;BME280;10465;42.686;23.364;2022-09-20T16:46:58;95022.69;;;17.52;41.37
20612;BME280;10465;42.686;23.364;2022-09-20T16:49:24;95027.09;;;17.44;41.57
20612;BME280;10465;42.686;23.364;2022-09-20T16:51:51;95036.31;;;17.31;42.15
20612;BME280;10465;42.686;23.364;2022-09-20T16:54:17;95020.16;;;17.27;42.18
20612;BME280;10465;42.686;23.364;2022-09-20T16:56:46;95016.88;;;17.18;42.54
20612;BME280;10465;42.686;23.364;2022-09-20T16:59:13;95034.31;;;17.28;42.31
20612;BME280;10465;42.686;23.364;2022-09-20T17:01:40;95042.44;;;17.32;42.50
20612;BME280;10465;42.686;23.364;2022-09-20T17:04:07;95045.97;;;17.36;42.76
20612;BME280;10465;42.686;23.364;2022-09-20T17:06:34;95047.34;;;17.29;42.90
20612;BME280;10465;42.686;23.364;2022-09-20T17:09:00;95048.81;;;17.27;42.50
20612;BME280;10465;42.686;23.364;2022-09-20T17:11:31;95033.16;;;17.13;42.86
20612;BME280;10465;42.686;23.364;2022-09-20T17:13:56;95033.41;;;17.08;43.02
20612;BME280;10465;42.686;23.364;2022-09-20T17:16:28;95041.28;;;17.17;43.29
20612;BME280;10465;42.686;23.364;2022-09-20T17:18:58;95015.69;;;16.88;43.33
20612;BME280;10465;42.686;23.364;2022-09-20T17:21:25;95043.59;;;17.02;43.67
20612;BME280;10465;42.686;23.364;2022-09-20T17:23:54;95049.81;;;17.07;43.88
20612;BME280;10465;42.686;23.364;2022-09-20T17:26:30;95050.84;;;17.02;43.82
20612;BME280;10465;42.686;23.364;2022-09-20T17:28:58;95042.06;;;16.89;44.04
20612;BME280;10465;42.686;23.364;2022-09-20T17:31:26;95045.97;;;16.92;43.94
20612;BME280;10465;42.686;23.364;2022-09-20T17:33:55;95041.53;;;16.71;44.28
20612;BME280;10465;42.686;23.364;2022-09-20T17:36:26;95034.09;;;16.65;44.46
20612;BME280;10465;42.686;23.364;2022-09-20T17:38:54;95051.13;;;16.72;44.28
20612;BME280;10465;42.686;23.364;2022-09-20T17:41:21;95045.66;;;16.69;44.41
20612;BME280;10465;42.686;23.364;2022-09-20T17:43:51;95061.03;;;16.72;44.56
20612;BME280;10465;42.686;23.364;2022-09-20T17:46:19;95058.97;;;16.65;44.37
20612;BME280;10465;42.686;23.364;2022-09-20T17:48:49;95044.03;;;16.52;44.40
20612;BME280;10465;42.686;23.364;2022-09-20T17:51:17;95061.53;;;16.62;44.39
20612;BME280;10465;42.686;23.364;2022-09-20T17:53:43;95061.84;;;16.60;44.56
20612;BME280;10465;42.686;23.364;2022-09-20T17:56:11;95060.97;;;16.56;44.54